Time;durP1;ratioP1;P1;durP2;ratioP2;P2;SDS_P1;SDS_P2;PMS_P1;PMS_P2;Temp;Humidity;BMP_temperature;BMP_pressure;BME280_temperature;BME280_humidity;BME280_pressure;Samples;Min_cycle;Max_cycle;Signal;HPM_P1;HPM_P2
2023/06/17 00:00:06;;;;;;;8.60;6.50;;;;;;;16.98;67.74;98094.03;5032605;28;20212;-85
2023/06/17 00:02:33;;;;;;;7.27;6.50;;;;;;;16.96;67.88;98090.63;5033528;28;20319;-85
2023/06/17 00:04:59;;;;;;;7.30;6.43;;;;;;;16.87;68.12;98085.34;5033489;28;20600;-85
2023/06/17 00:07:27;;;;;;;7.63;6.60;;;;;;;16.81;68.90;98091.25;5033385;28;20228;-84
2023/06/17 00:09:53;;;;;;;7.70;6.67;;;;;;;16.75;69.12;98087.34;5032449;28;20687;-85
2023/06/17 00:12:21;;;;;;;6.67;5.97;;;;;;;16.75;69.53;98087.34;5032957;28;20233;-84
2023/06/17 00:14:47;;;;;;;7.80;6.13;;;;;;;16.62;70.32;98102.84;5032420;28;20236;-85
2023/06/17 00:17:14;;;;;;;7.70;6.90;;;;;;;16.60;70.47;98094.16;5033091;28;20223;-85
2023/06/17 00:19:41;;;;;;;9.40;7.20;;;;;;;16.36;71.43;98101.75;5032324;28;20220;-85
2023/06/17 00:22:09;;;;;;;7.43;6.33;;;;;;;16.15;72.99;98093.03;5032954;28;20231;-85
2023/06/17 00:24:37;;;;;;;8.40;6.43;;;;;;;15.95;75.76;98100.34;5032922;28;20282;-86
2023/06/17 00:27:04;;;;;;;8.20;6.47;;;;;;;15.85;75.89;98099.50;5032759;28;20274;-85
2023/06/17 00:29:30;;;;;;;7.13;6.43;;;;;;;15.78;76.52;98101.03;5032350;28;20209;-85
2023/06/17 00:31:57;;;;;;;7.47;6.67;;;;;;;15.70;77.18;98087.59;5032603;28;20220;-85
2023/06/17 00:34:23;;;;;;;6.97;6.27;;;;;;;15.65;77.13;98087.16;5032822;28;20209;-85
2023/06/17 00:36:50;;;;;;;6.83;6.13;;;;;;;15.69;76.80;98084.06;5032623;28;20399;-85
2023/06/17 00:39:17;;;;;;;7.77;6.37;;;;;;;15.78;76.41;98077.91;5031687;28;20209;-85
2023/06/17 00:41:44;;;;;;;8.67;6.00;;;;;;;15.87;74.96;98070.88;5032649;28;20205;-85
2023/06/17 00:44:11;;;;;;;8.00;6.50;;;;;;;15.89;74.58;98068.94;5032363;28;20225;-85
2023/06/17 00:46:40;;;;;;;8.27;6.50;;;;;;;15.88;74.56;98067.25;5032370;28;20690;-85
2023/06/17 00:49:10;;;;;;;6.80;6.10;;;;;;;15.87;74.57;98063.72;5031998;28;20208;-85
2023/06/17 00:51:37;;;;;;;7.67;6.20;;;;;;;15.80;74.92;98069.75;5032337;28;20684;-85
2023/06/17 00:54:05;;;;;;;6.93;6.20;;;;;;;15.70;75.21;98076.91;5032131;28;20235;-85
2023/06/17 00:56:31;;;;;;;7.37;6.53;;;;;;;15.55;75.83;98070.28;5032321;28;20303;-85
2023/06/17 00:59:02;;;;;;;8.13;6.83;;;;;;;15.36;77.02;98078.25;5031343;28;20675;-85
2023/06/17 01:01:29;;;;;;;6.80;6.03;;;;;;;15.18;77.43;98072.72;5028961;28;20205;-85
2023/06/17 01:03:57;;;;;;;7.73;6.97;;;;;;;15.05;78.72;98082.78;5029269;28;20707;-85
2023/06/17 01:06:33;;;;;;;10.00;7.53;;;;;;;14.95;80.15;98081.03;5029408;28;20205;-85
2023/06/17 01:09:05;;;;;;;8.57;6.90;;;;;;;14.92;81.09;98086.63;5031144;28;20216;-85
2023/06/17 01:11:33;;;;;;;8.73;6.83;;;;;;;14.91;81.15;98084.94;5031813;28;20250;-85
2023/06/17 01:14:02;;;;;;;8.10;6.83;;;;;;;14.82;82.56;98086.59;5031989;28;20232;-85
2023/06/17 01:16:31;;;;;;;7.57;6.77;;;;;;;14.77;83.27;98087.94;5032148;28;20208;-85
2023/06/17 01:18:59;;;;;;;7.17;6.27;;;;;;;14.73;82.79;98086.53;5032143;28;20205;-85
2023/06/17 01:21:29;;;;;;;7.67;6.87;;;;;;;14.65;83.42;98083.69;5031674;28;20213;-85
2023/06/17 01:23:59;;;;;;;9.43;6.80;;;;;;;14.60;83.27;98085.94;5031892;28;20225;-85
2023/06/17 01:26:28;;;;;;;6.93;6.10;;;;;;;14.53;83.53;98090.06;5031031;28;20205;-85
2023/06/17 01:28:59;;;;;;;8.23;6.80;;;;;;;14.49;83.87;98088.66;5031295;28;20233;-85
2023/06/17 01:31:26;;;;;;;7.27;6.50;;;;;;;14.46;85.02;98097.72;5031265;28;20212;-85
2023/06/17 01:33:57;;;;;;;7.20;6.50;;;;;;;14.46;85.39;98099.53;5031816;28;20333;-85
2023/06/17 01:36:28;;;;;;;7.67;6.43;;;;;;;14.47;85.71;98091.44;5031731;28;20212;-85
2023/06/17 01:39:02;;;;;;;6.77;6.07;;;;;;;14.51;85.69;98086.69;5031665;28;20204;-85
2023/06/17 01:41:34;;;;;;;6.90;6.20;;;;;;;14.48;86.08;98089.63;5031137;28;20204;-85
2023/06/17 01:44:03;;;;;;;7.20;6.50;;;;;;;14.45;86.40;98081.91;5031278;28;20241;-85
2023/06/17 01:46:30;;;;;;;7.33;6.63;;;;;;;14.43;86.28;98078.53;5031695;28;20231;-85
2023/06/17 01:48:57;;;;;;;6.97;6.27;;;;;;;14.45;86.25;98082.75;5031968;28;20240;-85
2023/06/17 01:51:26;;;;;;;8.07;6.70;;;;;;;14.46;86.39;98078.25;5031092;28;20212;-85
2023/06/17 01:53:55;;;;;;;6.67;6.07;;;;;;;14.45;86.22;98081.91;5031827;28;20263;-85
2023/06/17 01:56:21;;;;;;;7.03;6.33;;;;;;;14.43;86.22;98082.03;5031401;28;20868;-85
2023/06/17 01:58:49;;;;;;;8.10;6.57;;;;;;;14.41;86.71;98085.78;5030999;28;20552;-85
2023/06/17 02:01:15;;;;;;;6.63;6.03;;;;;;;14.37;86.49;98084.38;5031165;28;20209;-85
2023/06/17 02:03:42;;;;;;;7.10;6.40;;;;;;;14.35;86.72;98087.16;5031634;28;20232;-85
2023/06/17 02:06:09;;;;;;;7.13;6.37;;;;;;;14.28;86.72;98083.34;5031745;28;20631;-85
2023/06/17 02:08:35;;;;;;;7.97;7.13;;;;;;;14.21;87.18;98089.28;5031499;28;20248;-85
2023/06/17 02:11:02;;;;;;;7.13;6.43;;;;;;;14.21;87.62;98091.97;5030975;28;20205;-85
2023/06/17 02:13:30;;;;;;;7.50;6.37;;;;;;;14.16;87.56;98084.34;5031630;28;20224;-85
2023/06/17 02:15:58;;;;;;;7.50;6.33;;;;;;;14.14;88.38;98085.44;5031418;28;20213;-85
2023/06/17 02:18:25;;;;;;;6.97;6.27;;;;;;;14.10;88.71;98084.84;5031088;28;20212;-85
2023/06/17 02:20:52;;;;;;;7.87;6.93;;;;;;;14.04;89.15;98081.84;5030433;28;20216;-85
2023/06/17 02:23:18;;;;;;;7.83;7.00;;;;;;;14.04;89.00;98080.06;5030878;28;20233;-85
2023/06/17 02:25:45;;;;;;;8.37;6.93;;;;;;;13.94;90.14;98080.97;5030853;28;20212;-85
2023/06/17 02:28:11;;;;;;;8.10;7.30;;;;;;;13.90;90.50;98074.22;5030335;28;20255;-85
2023/06/17 02:30:38;;;;;;;7.57;6.77;;;;;;;13.85;90.58;98066.63;5030343;28;20561;-85
2023/06/17 02:33:06;;;;;;;8.10;7.30;;;;;;;13.83;91.60;98073.03;5030975;28;20237;-85
2023/06/17 02:35:33;;;;;;;7.30;6.60;;;;;;;13.77;91.93;98068.22;5031049;28;20204;-85
2023/06/17 02:38:00;;;;;;;8.53;6.90;;;;;;;13.72;92.28;98065.09;5033301;28;20204;-85
2023/06/17 02:40:26;;;;;;;8.27;7.40;;;;;;;13.67;92.85;98075.25;5034393;28;20216;-85
2023/06/17 02:42:57;;;;;;;7.67;6.70;;;;;;;13.62;93.56;98064.19;5060954;22;20231;-78
2023/06/17 02:45:24;;;;;;;7.43;6.63;;;;;;;13.59;93.14;98059.13;5074553;28;20740;-77
2023/06/17 02:47:50;;;;;;;8.30;6.93;;;;;;;13.54;93.34;98066.63;5074581;28;20265;-77
2023/06/17 02:50:21;;;;;;;7.40;6.67;;;;;;;13.47;93.69;98071.59;5073834;28;20211;-77
2023/06/17 02:52:47;;;;;;;8.40;7.10;;;;;;;13.42;93.67;98064.97;5074475;28;20314;-77
2023/06/17 02:55:15;;;;;;;7.43;6.63;;;;;;;13.40;93.94;98064.25;5074628;28;20331;-78
2023/06/17 02:57:44;;;;;;;6.90;6.20;;;;;;;13.35;93.58;98066.44;5074575;28;20323;-77
2023/06/17 03:00:12;;;;;;;7.00;6.30;;;;;;;13.32;93.76;98064.06;5073689;28;20218;-78
2023/06/17 03:02:38;;;;;;;8.77;6.20;;;;;;;13.30;94.11;98063.31;5074218;28;20232;-78
2023/06/17 03:05:07;;;;;;;7.10;6.40;;;;;;;13.26;94.53;98067.19;5074180;28;20207;-77
2023/06/17 03:07:36;;;;;;;7.53;6.20;;;;;;;13.25;94.52;98068.13;5074402;28;20603;-78
2023/06/17 03:10:03;;;;;;;6.97;6.37;;;;;;;13.20;94.89;98073.00;5073585;28;20314;-77
2023/06/17 03:12:30;;;;;;;7.03;6.33;;;;;;;13.19;94.92;98063.31;5074029;28;20676;-77
2023/06/17 03:14:57;;;;;;;7.20;6.43;;;;;;;13.21;94.87;98066.72;5074020;28;20741;-77
2023/06/17 03:17:24;;;;;;;7.67;6.83;;;;;;;13.15;95.93;98075.19;5073914;28;20203;-78
2023/06/17 03:19:51;;;;;;;8.43;7.07;;;;;;;13.14;96.31;98078.81;5073015;28;20207;-77
2023/06/17 03:22:20;;;;;;;8.00;7.20;;;;;;;13.13;97.08;98072.63;5074005;28;20211;-77
2023/06/17 03:24:48;;;;;;;7.77;7.03;;;;;;;13.16;96.97;98068.91;5074038;28;20589;-77
2023/06/17 03:27:14;;;;;;;7.30;6.60;;;;;;;13.16;97.13;98075.06;5073910;28;20214;-77
2023/06/17 03:29:41;;;;;;;8.70;7.67;;;;;;;13.14;97.10;98073.50;5073088;28;20226;-77
2023/06/17 03:32:08;;;;;;;7.50;6.60;;;;;;;13.14;96.50;98074.31;5073307;28;20222;-77
2023/06/17 03:34:34;;;;;;;7.27;6.37;;;;;;;13.18;96.46;98080.22;5073827;28;20211;-76
2023/06/17 03:37:01;;;;;;;7.37;6.67;;;;;;;13.23;95.89;98072.75;5073681;28;20219;-76
2023/06/17 03:39:27;;;;;;;8.33;6.60;;;;;;;13.26;96.18;98072.50;5072830;28;20681;-77
2023/06/17 03:41:55;;;;;;;7.47;6.27;;;;;;;13.33;95.55;98074.53;5073755;28;20745;-77
2023/06/17 03:44:21;;;;;;;6.83;6.13;;;;;;;13.37;95.30;98069.81;5073567;28;20235;-77
2023/06/17 03:46:48;;;;;;;6.27;5.67;;;;;;;13.40;94.95;98067.78;5073431;28;20214;-77
2023/06/17 03:49:14;;;;;;;7.40;6.43;;;;;;;13.48;94.77;98078.59;5071794;28;20233;-77
2023/06/17 03:51:41;;;;;;;6.67;6.00;;;;;;;13.54;94.10;98072.78;5073405;28;20204;-76
2023/06/17 03:54:07;;;;;;;6.97;6.07;;;;;;;13.56;94.52;98075.31;5073375;28;20223;-76
2023/06/17 03:56:34;;;;;;;7.50;6.70;;;;;;;13.58;93.96;98084.81;5073346;28;20214;-77
2023/06/17 03:59:02;;;;;;;6.13;5.53;;;;;;;13.63;93.62;98081.81;5073325;28;20199;-76
2023/06/17 04:01:28;;;;;;;7.27;6.03;;;;;;;13.66;93.11;98076.22;5072682;28;20207;-77
2023/06/17 04:03:55;;;;;;;7.43;5.87;;;;;;;13.69;93.46;98076.81;5073029;28;20227;-76
2023/06/17 04:06:21;;;;;;;5.90;5.20;;;;;;;13.76;93.09;98085.16;5073167;28;20214;-77
2023/06/17 04:08:48;;;;;;;7.63;5.93;;;;;;;13.81;92.39;98081.13;5073132;28;20238;-77
2023/06/17 04:11:15;;;;;;;6.40;5.77;;;;;;;13.85;92.74;98076.41;5072256;28;20210;-77
2023/06/17 04:13:41;;;;;;;6.97;6.27;;;;;;;13.91;92.56;98076.75;5072885;28;20228;-76
2023/06/17 04:16:09;;;;;;;8.13;6.70;;;;;;;14.00;91.97;98081.28;5072773;28;20222;-76
2023/06/17 04:18:36;;;;;;;7.67;5.93;;;;;;;14.04;92.25;98081.84;5073086;28;20227;-76
2023/06/17 04:21:02;;;;;;;8.50;6.87;;;;;;;14.07;92.46;98081.63;5072193;28;20207;-77
2023/06/17 04:23:29;;;;;;;10.70;8.00;;;;;;;14.13;92.28;98081.94;5072816;28;20228;-77
2023/06/17 04:25:56;;;;;;;7.87;7.07;;;;;;;14.19;92.13;98083.28;5072775;28;20582;-77
2023/06/17 04:28:23;;;;;;;9.10;7.70;;;;;;;14.25;92.08;98082.75;5072592;28;20231;-76
2023/06/17 04:30:51;;;;;;;8.27;7.30;;;;;;;14.31;92.10;98079.59;5072094;28;20212;-77
2023/06/17 04:33:19;;;;;;;10.43;7.83;;;;;;;14.39;92.48;98082.44;5072697;28;20227;-76
2023/06/17 04:35:49;;;;;;;7.70;6.90;;;;;;;14.47;92.27;98079.94;5072568;28;20214;-76
2023/06/17 04:38:16;;;;;;;8.30;7.40;;;;;;;14.52;92.14;98073.28;5072657;28;20235;-77
2023/06/17 04:40:44;;;;;;;9.53;7.33;;;;;;;14.64;91.66;98082.00;5072210;28;20207;-76
2023/06/17 04:43:11;;;;;;;8.83;7.20;;;;;;;14.75;91.61;98076.59;5072191;28;20258;-77
2023/06/17 04:45:39;;;;;;;9.00;7.43;;;;;;;14.89;91.09;98073.56;5072531;28;20207;-79
2023/06/17 04:48:06;;;;;;;7.60;6.70;;;;;;;14.97;89.40;98071.94;5072140;28;20242;-75
2023/06/17 04:50:35;;;;;;;8.57;7.67;;;;;;;15.08;88.03;98060.34;5071907;28;20701;-76
2023/06/17 04:53:03;;;;;;;7.90;7.10;;;;;;;15.19;86.66;98063.75;5072514;28;20227;-76
2023/06/17 04:55:30;;;;;;;9.47;7.00;;;;;;;15.23;86.30;98064.31;5072285;28;20211;-76
2023/06/17 04:57:56;;;;;;;8.70;7.47;;;;;;;15.35;85.71;98060.59;5072261;28;20312;-76
2023/06/17 05:00:23;;;;;;;9.33;7.60;;;;;;;15.45;84.91;98064.13;5071740;28;20207;-76
2023/06/17 05:02:50;;;;;;;8.30;7.50;;;;;;;15.74;83.93;98054.31;5072318;28;20231;-76
2023/06/17 05:05:16;;;;;;;8.87;7.47;;;;;;;15.88;82.80;98061.94;5072089;28;20203;-76
2023/06/17 05:07:44;;;;;;;8.73;7.83;;;;;;;16.14;82.13;98064.69;5072106;28;20591;-77
2023/06/17 05:10:11;;;;;;;9.63;8.20;;;;;;;16.60;78.87;98062.13;5071666;28;20207;-76
2023/06/17 05:12:37;;;;;;;9.67;7.80;;;;;;;17.09;75.59;98048.44;5071955;28;20238;-76
2023/06/17 05:15:05;;;;;;;7.50;6.80;;;;;;;17.77;72.23;98037.19;5072131;28;20257;-75
2023/06/17 05:17:31;;;;;;;8.40;7.07;;;;;;;18.32;68.16;98025.31;5071920;28;20247;-76
2023/06/17 05:19:58;;;;;;;8.50;7.13;;;;;;;18.91;65.33;98021.81;5071634;28;20682;-76
2023/06/17 05:22:24;;;;;;;7.80;7.07;;;;;;;19.38;62.73;98010.47;5071782;28;20238;-76
2023/06/17 05:24:52;;;;;;;7.83;7.07;;;;;;;19.86;60.76;98007.03;5070359;28;20701;-76
2023/06/17 05:27:19;;;;;;;7.80;7.00;;;;;;;20.35;59.01;97998.00;5070762;28;20441;-75
2023/06/17 05:29:45;;;;;;;9.17;6.90;;;;;;;20.76;57.51;97987.00;5071526;28;20605;-75
2023/06/17 05:32:11;;;;;;;8.37;7.57;;;;;;;21.10;56.31;97987.56;5070281;28;20207;-75
2023/06/17 05:34:38;;;;;;;8.60;6.53;;;;;;;21.29;54.16;97978.25;5071899;28;20222;-75
2023/06/17 05:37:04;;;;;;;7.60;6.90;;;;;;;21.67;54.10;97985.44;5069522;28;20430;-74
2023/06/17 05:39:31;;;;;;;8.27;6.70;;;;;;;21.85;52.70;97978.75;5070248;28;20218;-75
2023/06/17 05:41:59;;;;;;;8.30;7.47;;;;;;;22.00;51.99;97978.81;5071880;28;20226;-75
2023/06/17 05:44:25;;;;;;;8.13;7.33;;;;;;;22.19;51.46;97964.84;5070130;28;20258;-76
2023/06/17 05:46:52;;;;;;;7.40;6.70;;;;;;;22.35;50.39;97965.50;5071564;28;20203;-75
2023/06/17 05:49:18;;;;;;;8.30;7.03;;;;;;;22.58;50.53;97977.09;5071288;28;20730;-76
2023/06/17 05:51:48;;;;;;;7.70;6.90;;;;;;;22.83;49.36;97969.56;5071572;28;20208;-76
2023/06/17 05:54:15;;;;;;;7.17;6.47;;;;;;;23.04;49.01;97967.78;5071575;28;20239;-76
2023/06/17 05:56:41;;;;;;;7.40;6.63;;;;;;;23.22;48.93;97973.66;5071688;28;20215;-76
2023/06/17 05:59:09;;;;;;;7.43;6.70;;;;;;;23.30;48.45;97964.63;5071211;28;20203;-76
2023/06/17 06:01:35;;;;;;;8.03;6.80;;;;;;;23.51;47.62;97970.03;5071407;28;20203;-77
2023/06/17 06:04:02;;;;;;;8.07;6.57;;;;;;;23.61;47.74;97970.59;5071789;28;20254;-75
2023/06/17 06:06:28;;;;;;;7.40;6.70;;;;;;;23.69;47.67;97982.09;5071352;28;20226;-76
2023/06/17 06:08:55;;;;;;;9.13;7.10;;;;;;;23.77;47.31;97971.16;5071204;28;20227;-76
2023/06/17 06:11:21;;;;;;;7.90;7.10;;;;;;;23.81;46.56;97961.66;5070877;28;20680;-77
2023/06/17 06:13:48;;;;;;;7.73;6.87;;;;;;;23.86;46.79;97966.47;5071210;28;20249;-77
2023/06/17 06:16:16;;;;;;;7.70;6.90;;;;;;;23.99;46.81;97980.97;5071257;28;20674;-77
2023/06/17 06:18:42;;;;;;;8.27;6.47;;;;;;;24.18;46.76;97974.06;5071319;28;20305;-77
2023/06/17 06:21:09;;;;;;;7.67;6.77;;;;;;;24.36;46.48;97977.97;5070950;28;20208;-76
2023/06/17 06:23:35;;;;;;;7.17;6.57;;;;;;;24.56;46.46;97976.25;5071235;28;20714;-76
2023/06/17 06:26:02;;;;;;;7.93;7.10;;;;;;;24.66;46.72;97987.59;5071163;28;20216;-76
2023/06/17 06:28:29;;;;;;;7.57;6.80;;;;;;;24.76;45.58;97979.97;5070793;28;20227;-77
2023/06/17 06:30:55;;;;;;;6.73;6.13;;;;;;;24.92;45.25;97976.94;5070656;28;20211;-77
2023/06/17 06:33:23;;;;;;;8.00;6.17;;;;;;;25.09;45.04;97989.09;5070825;28;20732;-77
2023/06/17 06:35:49;;;;;;;8.50;6.40;;;;;;;25.23;44.12;97993.53;5070819;28;20234;-77
2023/06/17 06:38:16;;;;;;;6.60;5.93;;;;;;;25.35;43.75;97991.16;5071177;28;20207;-77
2023/06/17 06:40:43;;;;;;;8.87;6.37;;;;;;;25.33;42.98;97977.81;5070521;28;20215;-75
2023/06/17 06:43:09;;;;;;;8.70;6.80;;;;;;;25.37;43.89;97995.28;5070601;28;20239;-77
2023/06/17 06:45:36;;;;;;;7.05;6.35;;;;;;;25.54;43.21;97985.78;5070739;28;20218;-76
2023/06/17 06:48:02;;;;;;;6.82;6.20;;;;;;;25.72;43.61;97994.19;5070707;28;20207;-75
2023/06/17 06:50:30;;;;;;;6.87;6.27;;;;;;;25.90;42.85;97993.66;5070562;28;20599;-75
2023/06/17 06:52:56;;;;;;;9.00;6.55;;;;;;;26.02;43.41;98000.94;5070929;28;20231;-75
2023/06/17 06:55:23;;;;;;;6.45;5.63;;;;;;;26.10;42.92;97997.22;5070735;28;20215;-75
2023/06/17 06:57:49;;;;;;;6.03;5.43;;;;;;;25.87;43.07;98002.97;5070747;28;20235;-75
2023/06/17 07:00:17;;;;;;;7.05;6.30;;;;;;;25.86;43.69;98006.72;5070372;28;20646;-75
2023/06/17 07:02:43;;;;;;;9.32;5.97;;;;;;;25.95;43.30;98007.38;5070549;28;20580;-75
2023/06/17 07:05:10;;;;;;;6.88;6.28;;;;;;;25.99;43.34;98011.34;5070654;28;20211;-76
2023/06/17 07:07:38;;;;;;;7.05;6.18;;;;;;;25.73;43.08;98008.56;5070593;28;20207;-75
2023/06/17 07:10:05;;;;;;;7.20;6.50;;;;;;;25.54;44.49;98017.44;5070132;28;20249;-74
2023/06/17 07:12:32;;;;;;;7.47;6.63;;;;;;;25.37;45.46;98033.19;5070329;28;20288;-75
2023/06/17 07:14:58;;;;;;;6.70;6.00;;;;;;;24.97;44.42;98019.59;5070320;28;20212;-75
2023/06/17 07:17:25;;;;;;;7.00;6.30;;;;;;;24.42;45.78;98023.13;5070271;28;20678;-75
2023/06/17 07:19:51;;;;;;;6.55;5.93;;;;;;;23.78;46.26;98021.41;5070158;28;20208;-76
2023/06/17 07:22:18;;;;;;;6.70;6.10;;;;;;;23.46;47.84;98038.06;5070110;28;20214;-76
2023/06/17 07:24:45;;;;;;;7.30;6.40;;;;;;;23.21;48.44;98028.63;5072200;28;20586;-77
2023/06/17 07:27:12;;;;;;;6.77;6.03;;;;;;;23.09;49.15;98043.56;5073735;28;20211;-76
2023/06/17 07:29:39;;;;;;;6.83;6.10;;;;;;;23.07;49.89;98052.84;5073383;28;20254;-76
2023/06/17 07:32:06;;;;;;;7.63;6.30;;;;;;;23.13;50.33;98055.66;5073542;28;20207;-77
2023/06/17 07:34:33;;;;;;;6.80;6.20;;;;;;;23.20;51.25;98053.06;5073608;28;20211;-77
2023/06/17 07:37:00;;;;;;;6.67;6.07;;;;;;;23.30;51.71;98059.88;5073805;28;20233;-77
2023/06/17 07:39:26;;;;;;;7.00;6.30;;;;;;;23.31;52.14;98063.38;5073400;28;20214;-77
2023/06/17 07:41:54;;;;;;;7.90;6.07;;;;;;;23.37;51.12;98054.53;5073635;28;20212;-76
2023/06/17 07:44:21;;;;;;;7.40;6.70;;;;;;;23.45;50.09;98043.63;5073264;28;20242;-77
2023/06/17 07:46:47;;;;;;;6.47;5.87;;;;;;;23.54;49.97;98040.66;5073675;28;20208;-77
2023/06/17 07:49:13;;;;;;;6.67;6.03;;;;;;;23.62;48.79;98035.16;5073202;28;20227;-76
2023/06/17 07:51:40;;;;;;;6.50;5.90;;;;;;;23.76;49.66;98045.06;5073498;28;20552;-77
2023/06/17 07:54:06;;;;;;;7.53;6.50;;;;;;;23.84;49.34;98047.66;5073414;28;20314;-77
2023/06/17 07:56:33;;;;;;;6.93;5.97;;;;;;;23.91;49.80;98047.75;5073242;28;20213;-77
2023/06/17 07:59:02;;;;;;;7.03;6.30;;;;;;;23.96;49.33;98040.75;5073133;28;20206;-77
2023/06/17 08:01:28;;;;;;;7.47;6.47;;;;;;;24.05;49.22;98038.75;5072975;28;20269;-77
2023/06/17 08:03:54;;;;;;;6.90;6.20;;;;;;;24.03;47.98;98025.44;5073229;28;20253;-76
2023/06/17 08:06:22;;;;;;;7.50;6.33;;;;;;;24.04;48.08;98031.69;5073058;28;20211;-76
2023/06/17 08:08:48;;;;;;;9.73;7.30;;;;;;;24.18;48.26;98028.94;5072861;28;20207;-76
2023/06/17 08:11:15;;;;;;;7.40;6.70;;;;;;;24.24;49.00;98035.41;5072642;28;20214;-77
2023/06/17 08:13:41;;;;;;;6.80;6.20;;;;;;;24.22;46.32;98019.44;5072778;28;20239;-75
2023/06/17 08:16:09;;;;;;;8.13;5.73;;;;;;;24.13;46.71;98011.66;5072813;28;20693;-75
2023/06/17 08:18:35;;;;;;;6.13;5.53;;;;;;;24.12;47.07;98002.72;5072947;28;20226;-75
2023/06/17 08:21:02;;;;;;;6.37;5.77;;;;;;;24.03;45.90;97997.63;5072281;28;20203;-75
2023/06/17 08:23:28;;;;;;;6.70;6.10;;;;;;;24.03;45.93;97998.44;5072728;28;20231;-75
2023/06/17 08:25:56;;;;;;;6.33;5.73;;;;;;;24.06;47.24;98008.03;5072645;28;20222;-75
2023/06/17 08:28:22;;;;;;;9.17;6.03;;;;;;;24.21;46.54;98006.94;5072781;28;20276;-75
2023/06/17 08:30:51;;;;;;;7.40;6.37;;;;;;;24.19;45.46;97998.19;5072394;28;20231;-75
2023/06/17 08:33:18;;;;;;;6.97;5.93;;;;;;;;;;5072438;28;20341;-75
2023/06/17 08:35:45;;;;;;;5.73;5.17;;;;;;;24.45;46.26;98000.28;5071972;28;20230;-75
2023/06/17 08:38:11;;;;;;;7.50;5.90;;;;;;;24.67;46.21;98000.06;5072458;28;20234;-75
2023/06/17 08:40:44;;;;;;;6.80;6.00;;;;;;;24.78;45.15;97998.69;5071980;28;20200;-75
2023/06/17 08:43:11;;;;;;;5.87;5.33;;;;;;;24.94;45.60;97998.38;5086653;22;20259;-80
2023/06/17 08:45:38;;;;;;;6.83;5.63;;;;;;;24.94;42.25;97953.22;5072587;28;20203;-82
2023/06/17 08:48:06;;;;;;;6.47;5.70;;;;;;;24.98;43.08;97973.44;5072761;28;20219;-82
2023/06/17 08:50:35;;;;;;;6.53;5.27;;;;;;;25.21;44.29;97978.53;5072226;28;20234;-81
2023/06/17 08:53:11;;;;;;;5.70;5.13;;;;;;;25.35;44.95;97989.25;5072415;28;20235;-80
2023/06/17 08:55:38;;;;;;;6.17;5.57;;;;;;;25.43;42.47;97963.91;5072666;28;20218;-80
2023/06/17 08:58:06;;;;;;;6.27;5.40;;;;;;;25.40;42.55;97970.56;5072374;28;20214;-81
2023/06/17 09:00:32;;;;;;;6.47;5.70;;;;;;;25.32;41.39;97954.50;5072147;28;20206;-81
2023/06/17 09:03:00;;;;;;;7.30;5.63;;;;;;;25.43;41.77;97945.78;5072301;28;20227;-81
2023/06/17 09:05:26;;;;;;;6.85;6.07;;;;;;;25.41;41.02;97949.75;5072171;28;20400;-81
2023/06/17 09:07:54;;;;;;;10.80;6.70;;;;;;;25.39;40.22;97939.13;5072201;28;20211;-80
2023/06/17 09:10:21;;;;;;;15.67;6.73;;;;;;;25.34;41.83;97951.56;5071810;28;20724;-79
2023/06/17 09:12:47;;;;;;;8.67;5.80;;;;;;;25.44;43.06;97960.16;5072245;28;20231;-80
2023/06/17 09:15:18;;;;;;;6.32;5.05;;;;;;;25.61;41.23;97947.94;5072130;28;20204;-79
2023/06/17 09:17:45;;;;;;;6.00;5.40;;;;;;;25.66;39.15;97929.22;5072121;28;20208;-80
2023/06/17 09:20:13;;;;;;;8.18;4.88;;;;;;;25.78;35.52;97895.88;5071628;28;20222;-80
2023/06/17 09:22:41;;;;;;;5.38;4.88;;;;;;;25.39;37.12;97901.25;5072099;28;20203;-80
2023/06/17 09:25:14;;;;;;;6.60;4.93;;;;;;;25.26;37.13;97912.03;5072076;28;20208;-79
2023/06/17 09:27:50;;;;;;;6.45;4.70;;;;;;;25.10;37.29;97900.66;5071991;28;20215;-80
2023/06/17 09:30:17;;;;;;;5.97;5.00;;;;;;;25.15;37.07;97904.47;5071508;28;20288;-79
2023/06/17 09:32:44;;;;;;;6.63;4.88;;;;;;;25.34;36.88;97902.88;5071657;28;20229;-80
2023/06/17 09:35:15;;;;;;;5.33;4.83;;;;;;;25.39;37.52;97898.53;5071959;28;20609;-81
2023/06/17 09:37:44;;;;;;;5.43;4.93;;;;;;;25.51;38.08;97915.00;5071876;28;20239;-80
2023/06/17 09:40:12;;;;;;;5.60;4.70;;;;;;;25.85;36.62;97895.91;5071552;28;20207;-80
2023/06/17 09:42:39;;;;;;;5.30;4.82;;;;;;;25.98;35.93;97896.75;5071493;28;20677;-80
2023/06/17 09:45:08;;;;;;;6.03;4.87;;;;;;;26.06;36.31;97885.72;5071667;28;20268;-80
2023/06/17 09:47:37;;;;;;;5.57;5.05;;;;;;;26.07;36.72;97906.34;5070904;28;20207;-80
2023/06/17 09:50:04;;;;;;;5.60;4.90;;;;;;;26.19;37.78;97915.53;5071639;28;20235;-80
2023/06/17 09:52:32;;;;;;;5.30;4.80;;;;;;;26.17;35.04;97890.53;5071395;28;20203;-80
2023/06/17 09:54:59;;;;;;;5.13;4.63;;;;;;;26.24;34.77;97877.81;5071631;28;20527;-81
2023/06/17 09:57:31;;;;;;;6.97;5.03;;;;;;;26.34;34.08;97875.47;5071887;28;20233;-80
2023/06/17 10:00:00;;;;;;;4.70;4.18;;;;;;;26.31;34.51;97875.06;5071441;28;20639;-80
2023/06/17 10:02:26;;;;;;;5.30;4.55;;;;;;;26.28;35.02;97876.31;5071344;28;20208;-80
2023/06/17 10:04:53;;;;;;;5.53;4.90;;;;;;;26.35;34.48;97870.91;5071659;28;20217;-80
2023/06/17 10:07:23;;;;;;;5.30;4.80;;;;;;;26.51;34.74;97881.31;5071565;28;20291;-80
2023/06/17 10:09:50;;;;;;;5.32;4.93;;;;;;;26.55;35.26;97891.53;5071164;28;20246;-80
2023/06/17 10:12:17;;;;;;;5.60;5.10;;;;;;;26.57;34.09;97875.88;5071343;28;20203;-80
2023/06/17 10:14:48;;;;;;;5.35;4.85;;;;;;;26.55;33.61;97866.28;5071737;28;20227;-80
2023/06/17 10:17:17;;;;;;;8.30;5.10;;;;;;;26.56;33.34;97857.13;5071525;28;20207;-80
2023/06/17 10:19:46;;;;;;;5.22;4.65;;;;;;;26.63;31.34;97831.66;5071216;28;20551;-80
2023/06/17 10:22:16;;;;;;;4.25;3.92;;;;;;;26.66;31.23;97825.81;5071257;28;20207;-80
2023/06/17 10:24:43;;;;;;;4.97;4.47;;;;;;;26.79;31.69;97836.63;5071081;28;20614;-80
2023/06/17 10:27:09;;;;;;;5.65;4.53;;;;;;;26.85;31.26;97835.75;5071252;28;20207;-80
2023/06/17 10:29:36;;;;;;;4.85;4.38;;;;;;;26.92;31.72;97841.97;5071071;28;20214;-78
2023/06/17 10:32:22;;;;;;;4.72;4.32;;;;;;;27.03;31.35;97827.75;5071395;28;20219;-80
2023/06/17 10:35:09;;;;;;;4.80;4.38;;;;;;;27.03;30.86;97828.56;5071160;28;20241;-80
2023/06/17 10:37:40;;;;;;;4.70;4.30;;;;;;;27.14;32.87;97848.78;5071093;28;20264;-80
2023/06/17 10:40:25;;;;;;;4.43;4.03;;;;;;;27.34;32.58;97844.91;5070764;28;20209;-80
2023/06/17 10:43:14;;;;;;;4.90;4.32;;;;;;;27.34;31.38;97839.47;5071073;28;20281;-81
2023/06/17 10:45:49;;;;;;;6.68;4.75;;;;;;;27.44;31.10;97825.44;5070863;28;20215;-80
2023/06/17 10:48:20;;;;;;;4.57;4.18;;;;;;;27.48;31.96;97840.22;5071225;28;20649;-80
2023/06/17 10:50:53;;;;;;;5.00;4.60;;;;;;;27.69;30.21;97815.44;5070850;28;20235;-80
2023/06/17 10:53:27;;;;;;;5.00;4.50;;;;;;;27.74;30.27;97821.88;5070982;28;20224;-79
2023/06/17 10:55:53;;;;;;;5.90;4.82;;;;;;;27.60;30.39;97808.59;5070449;28;20257;-83
2023/06/17 10:58:20;;;;;;;4.93;4.40;;;;;;;27.58;31.86;97821.59;5072220;28;20211;-83
2023/06/17 11:00:46;;;;;;;5.93;4.80;;;;;;;27.61;34.25;97854.56;5074246;28;20203;-85
2023/06/17 11:03:15;;;;;;;7.43;5.22;;;;;;;27.34;34.09;97852.25;5074459;28;20227;-85
2023/06/17 11:05:43;;;;;;;5.57;4.97;;;;;;;27.00;33.30;97830.06;5074541;28;20214;-83
2023/06/17 11:08:10;;;;;;;6.57;5.20;;;;;;;26.78;33.22;97834.13;5074341;28;20207;-83
2023/06/17 11:10:37;;;;;;;6.07;4.97;;;;;;;26.49;33.59;97835.44;5073699;28;20262;-83
2023/06/17 11:13:04;;;;;;;5.90;5.05;;;;;;;26.44;33.79;97832.53;5074288;28;20232;-82
2023/06/17 11:15:31;;;;;;;8.10;4.97;;;;;;;26.51;33.75;97832.53;5074451;28;20218;-82
2023/06/17 11:18:01;;;;;;;6.15;5.55;;;;;;;26.61;33.59;97828.34;5074234;28;20210;-80
2023/06/17 11:20:33;;;;;;;5.82;5.32;;;;;;;26.92;33.81;97841.97;5073940;28;20273;-83
2023/06/17 11:23:03;;;;;;;5.30;4.80;;;;;;;27.04;32.96;97829.41;5073827;28;20246;-77
2023/06/17 11:25:29;;;;;;;5.20;4.63;;;;;;;27.17;33.63;97834.78;5074121;28;20222;-79
2023/06/17 11:27:56;;;;;;;5.35;4.85;;;;;;;27.22;32.86;97824.13;5074094;28;20211;-81
2023/06/17 11:30:25;;;;;;;5.28;4.50;;;;;;;27.54;31.93;97825.78;5073485;28;20234;-78
2023/06/17 11:32:52;;;;;;;4.88;4.47;;;;;;;27.58;31.40;97827.03;5073593;28;20298;-78
2023/06/17 11:35:19;;;;;;;5.07;4.57;;;;;;;27.52;30.90;97817.03;5073915;28;20243;-79